Time;durP1;ratioP1;P1;durP2;ratioP2;P2;SDS_P1;SDS_P2;PMS_P1;PMS_P2;Temp;Humidity;BMP_temperature;BMP_pressure;BME280_temperature;BME280_humidity;BME280_pressure;Samples;Min_cycle;Max_cycle;Signal;HPM_P1;HPM_P2
2022/03/23 00:03:18;;;;;;;8.88;5.47;;;;;;;7.15;38.54;101062.78;12184748;19;20014;-82
2022/03/23 00:07:20;;;;;;;10.95;5.78;;;;;;;7.11;38.50;101061.50;12194546;19;20010;-82
2022/03/23 00:11:22;;;;;;;9.40;5.10;;;;;;;7.05;38.78;101068.63;12207276;19;20010;-82
2022/03/23 00:15:24;;;;;;;12.23;5.72;;;;;;;7.00;38.92;101064.75;12181708;19;20022;-80
2022/03/23 00:19:26;;;;;;;15.95;6.75;;;;;;;6.92;39.10;101070.38;12203952;19;20007;-82
2022/03/23 00:23:28;;;;;;;8.00;5.20;;;;;;;6.89;38.79;101062.53;12203168;19;20007;-80
2022/03/23 00:27:30;;;;;;;11.60;5.97;;;;;;;6.91;38.88;101060.47;12176718;19;20007;-80
2022/03/23 00:31:31;;;;;;;10.57;5.03;;;;;;;6.96;38.60;101068.91;12195216;19;20015;-80
2022/03/23 00:35:33;;;;;;;11.32;4.97;;;;;;;6.96;38.87;101068.91;12200188;19;20003;-81
2022/03/23 00:39:35;;;;;;;9.02;4.75;;;;;;;6.91;39.27;101071.41;12174771;19;20014;-81
2022/03/23 00:43:36;;;;;;;10.98;5.65;;;;;;;6.84;39.51;101063.09;12203435;19;20358;-81
2022/03/23 00:47:39;;;;;;;12.00;5.55;;;;;;;6.79;40.03;101074.66;12206465;19;20015;-80
2022/03/23 00:51:41;;;;;;;11.43;5.47;;;;;;;6.60;40.90;101086.22;12188726;19;20395;-82
2022/03/23 00:55:45;;;;;;;8.90;5.25;;;;;;;6.25;41.87;101069.59;12201468;19;20021;-81
2022/03/23 00:59:47;;;;;;;9.47;5.73;;;;;;;6.04;42.77;101080.44;12214954;19;20037;-81
2022/03/23 01:03:49;;;;;;;12.50;6.07;;;;;;;5.90;43.26;101082.97;12181731;19;20484;-82
2022/03/23 01:07:51;;;;;;;9.55;6.13;;;;;;;5.75;43.67;101071.19;12208158;19;20030;-81
2022/03/23 01:11:54;;;;;;;10.68;5.53;;;;;;;5.66;43.55;101072.31;12197186;19;20003;-81
2022/03/23 01:15:56;;;;;;;20.40;7.88;;;;;;;5.59;43.95;101068.59;12214575;19;20066;-81
2022/03/23 01:19:58;;;;;;;10.18;6.00;;;;;;;5.52;43.84;101070.41;12209451;19;20017;-82
2022/03/23 01:24:00;;;;;;;13.85;6.22;;;;;;;5.46;43.34;101072.00;12195720;19;20034;-81
2022/03/23 01:28:03;;;;;;;8.75;5.57;;;;;;;5.39;43.56;101069.16;12225599;19;20026;-83
2022/03/23 01:32:05;;;;;;;11.00;6.10;;;;;;;5.34;43.50;101071.59;12209002;19;20636;-81
2022/03/23 01:36:07;;;;;;;12.37;5.87;;;;;;;5.34;43.14;101073.47;12198084;19;20100;-82
2022/03/23 01:40:11;;;;;;;11.27;5.32;;;;;;;5.32;43.27;101065.44;12209328;19;20011;-81
2022/03/23 01:44:20;;;;;;;11.02;5.03;;;;;;;5.32;43.09;101068.19;12219371;19;20493;-80
2022/03/23 01:48:22;;;;;;;11.32;5.57;;;;;;;5.34;43.08;101068.00;12179957;19;20027;-81
2022/03/23 01:52:26;;;;;;;13.30;5.68;;;;;;;5.34;43.25;101062.53;12206042;19;20081;-80
2022/03/23 01:56:27;;;;;;;12.38;5.53;;;;;;;5.35;42.70;101059.59;12203822;19;20032;-80
2022/03/23 02:00:30;;;;;;;11.20;4.73;;;;;;;5.37;42.79;101056.72;12190709;19;20006;-81
2022/03/23 02:04:32;;;;;;;10.15;4.93;;;;;;;5.37;42.61;101060.28;12207870;19;20388;-81
2022/03/23 02:08:34;;;;;;;8.60;4.95;;;;;;;5.43;42.32;101055.97;12211821;19;20010;-80
2022/03/23 02:12:37;;;;;;;11.57;5.00;;;;;;;5.43;42.21;101051.34;12189215;19;20084;-81
2022/03/23 02:16:41;;;;;;;12.98;5.93;;;;;;;5.47;41.97;101051.81;12201848;19;20022;-81
2022/03/23 02:20:42;;;;;;;11.38;5.95;;;;;;;5.56;41.46;101049.84;12207239;19;20369;-81
2022/03/23 02:24:48;;;;;;;10.13;5.55;;;;;;;5.63;41.51;101057.13;12186095;19;20077;-81
2022/03/23 02:28:50;;;;;;;9.07;5.28;;;;;;;5.65;41.58;101048.72;12196370;19;20490;-81
2022/03/23 02:32:52;;;;;;;9.00;5.38;;;;;;;5.65;41.51;101055.06;12200758;19;20075;-81
2022/03/23 02:36:54;;;;;;;13.52;6.20;;;;;;;5.63;41.60;101050.81;12209165;19;20031;-81
2022/03/23 02:40:56;;;;;;;16.30;7.53;;;;;;;5.62;41.57;101051.81;12211415;19;20023;-80
2022/03/23 02:44:57;;;;;;;12.57;6.45;;;;;;;5.59;41.92;101049.47;12183971;19;20479;-80
2022/03/23 02:48:59;;;;;;;14.15;7.18;;;;;;;5.59;42.33;101050.34;12209183;19;20444;-80
2022/03/23 03:02:27;;;;;;;13.18;7.13;;;;;;;5.71;41.88;101048.84;12210288;19;20086;-80
2022/03/23 03:06:29;;;;;;;9.98;5.65;;;;;;;5.74;41.55;101057.69;12186711;19;20003;-80
2022/03/23 03:10:31;;;;;;;14.20;6.20;;;;;;;5.71;42.06;101053.44;12200557;19;20011;-81
2022/03/23 03:14:34;;;;;;;10.65;5.95;;;;;;;5.65;42.72;101056.91;12202512;19;20073;-81
2022/03/23 03:18:35;;;;;;;11.48;6.32;;;;;;;5.50;44.00;101062.38;12190582;19;20006;-80
2022/03/23 03:22:40;;;;;;;9.45;5.82;;;;;;;5.31;44.97;101065.66;12208106;19;20007;-80
2022/03/23 03:26:44;;;;;;;13.40;6.53;;;;;;;5.11;45.94;101062.56;12206725;19;20031;-81
2022/03/23 03:30:46;;;;;;;11.05;6.70;;;;;;;4.91;46.35;101068.53;12181046;19;20030;-80
2022/03/23 03:34:47;;;;;;;14.95;6.25;;;;;;;4.69;47.05;101078.41;12210567;19;20006;-81
2022/03/23 03:38:50;;;;;;;11.38;6.22;;;;;;;4.51;47.83;101081.41;12205143;19;20353;-80
2022/03/23 03:42:51;;;;;;;12.53;7.03;;;;;;;4.29;48.72;101084.94;12167834;19;20010;-80
2022/03/23 03:46:53;;;;;;;10.60;6.75;;;;;;;4.14;49.27;101082.13;12203017;19;20006;-80
2022/03/23 03:50:54;;;;;;;11.60;5.85;;;;;;;4.03;49.49;101093.41;12180980;19;20042;-80
2022/03/23 03:54:56;;;;;;;11.73;6.38;;;;;;;3.91;49.90;101092.94;12198860;19;20105;-81
2022/03/23 03:58:58;;;;;;;14.48;6.28;;;;;;;3.84;50.07;101097.41;12202264;19;20011;-80
2022/03/23 04:03:00;;;;;;;13.07;6.45;;;;;;;3.74;50.29;101096.72;12186783;19;20014;-80
2022/03/23 04:07:04;;;;;;;9.30;5.45;;;;;;;3.62;50.41;101098.97;12207098;19;20101;-80
2022/03/23 04:11:06;;;;;;;9.30;5.43;;;;;;;3.52;50.44;101092.84;12199828;19;20491;-81
2022/03/23 04:15:08;;;;;;;10.48;5.88;;;;;;;3.42;52.16;101104.78;12176697;19;20010;-80
2022/03/23 04:19:09;;;;;;;11.50;6.40;;;;;;;3.33;52.24;101097.66;12214550;19;20023;-80
2022/03/23 04:23:11;;;;;;;14.30;6.47;;;;;;;3.25;52.17;101102.25;12221094;19;20366;-81
2022/03/23 04:27:13;;;;;;;14.07;7.28;;;;;;;3.17;52.60;101112.09;12178754;19;20067;-81
2022/03/23 04:31:15;;;;;;;11.57;6.27;;;;;;;3.08;53.18;101112.28;12209548;19;20025;-81
2022/03/23 04:35:18;;;;;;;12.35;7.15;;;;;;;3.00;53.25;101114.97;12222242;19;20017;-81
2022/03/23 04:39:19;;;;;;;11.65;6.72;;;;;;;2.93;53.08;101120.25;12189706;19;20088;-81
2022/03/23 04:43:23;;;;;;;14.00;6.68;;;;;;;2.87;53.35;101113.59;12207510;19;20016;-81
2022/03/23 04:47:25;;;;;;;16.92;7.80;;;;;;;2.85;54.06;101121.09;12216056;19;20007;-81
2022/03/23 04:51:26;;;;;;;14.98;7.43;;;;;;;2.79;53.89;101120.91;12189551;19;20118;-81
2022/03/23 04:55:28;;;;;;;14.65;7.68;;;;;;;2.72;54.28;101128.91;12211110;19;20087;-81
2022/03/23 04:59:30;;;;;;;13.43;8.00;;;;;;;2.68;54.37;101128.38;12210035;19;20021;-81
2022/03/23 05:03:32;;;;;;;13.95;7.78;;;;;;;2.66;54.17;101129.56;12193704;19;20016;-82
2022/03/23 05:07:34;;;;;;;22.35;9.15;;;;;;;2.63;54.71;101129.91;12218542;19;20496;-80
2022/03/23 05:11:36;;;;;;;15.90;8.43;;;;;;;2.64;55.20;101131.59;12237055;19;20110;-81
2022/03/23 05:15:37;;;;;;;14.88;8.40;;;;;;;2.62;55.51;101131.78;12194892;19;20006;-82
2022/03/23 05:19:39;;;;;;;19.43;8.33;;;;;;;2.62;55.22;101134.50;12228355;19;20011;-81
2022/03/23 05:23:41;;;;;;;14.25;7.60;;;;;;;2.64;55.16;101132.44;12229654;19;20010;-81
2022/03/23 05:27:43;;;;;;;10.35;6.10;;;;;;;2.69;54.97;101135.50;12180786;19;20014;-81
2022/03/23 05:31:45;;;;;;;12.40;6.03;;;;;;;2.76;54.86;101132.13;12207839;19;20010;-82
2022/03/23 05:35:46;;;;;;;13.18;6.35;;;;;;;2.80;54.38;101131.63;12243872;19;20025;-82
2022/03/23 05:39:48;;;;;;;15.88;6.88;;;;;;;2.77;54.71;101133.81;12234955;19;20010;-81
2022/03/23 05:43:50;;;;;;;18.70;7.47;;;;;;;2.77;55.35;101131.09;12231336;19;20063;-81
2022/03/23 05:47:53;;;;;;;12.98;6.57;;;;;;;2.79;55.31;101139.97;12199825;19;20508;-80
2022/03/23 05:51:55;;;;;;;15.27;7.15;;;;;;;2.76;55.65;101143.00;12207766;19;20023;-80
2022/03/23 05:55:58;;;;;;;14.95;7.47;;;;;;;2.77;56.26;101151.03;12204551;19;20011;-80
2022/03/23 06:00:00;;;;;;;15.73;7.38;;;;;;;2.82;56.43;101154.09;12183560;19;20010;-80
2022/03/23 06:04:12;;;;;;;19.30;5.13;;;;;;;2.84;55.75;101154.78;12206956;19;20035;-80
2022/03/23 06:08:17;;;;;;;15.88;6.80;;;;;;;2.92;55.60;101152.09;12206002;19;20388;-81
2022/03/23 06:12:21;;;;;;;14.20;6.93;;;;;;;3.06;55.46;101156.00;12189256;19;20820;-80
2022/03/23 06:16:23;;;;;;;;;;;;;;;3.18;55.59;101156.53;12209567;19;20029;-80
2022/03/23 06:20:25;;;;;;;17.63;6.43;;;;;;;3.30;55.27;101162.50;12212796;19;19928;-81
2022/03/23 06:24:28;;;;;;;16.08;7.20;;;;;;;3.37;56.02;101167.13;12180583;19;20010;-82
2022/03/23 06:28:31;;;;;;;;;;;;;;;3.40;56.50;101168.66;12203581;19;20051;-81
2022/03/23 06:32:33;;;;;;;10.43;5.25;;;;;;;3.46;56.51;101170.69;12207790;19;19987;-82
2022/03/23 06:36:35;;;;;;;11.77;6.33;;;;;;;3.51;56.46;101183.78;12186580;19;20010;-80
2022/03/23 06:40:37;;;;;;;11.50;5.88;;;;;;;3.56;56.12;101187.72;12170278;19;20625;-81
2022/03/23 06:44:39;;;;;;;10.95;6.07;;;;;;;3.64;56.17;101190.44;12201936;19;20020;-81
2022/03/23 06:48:41;;;;;;;13.30;6.65;;;;;;;3.75;56.48;101191.09;12190476;19;20010;-81
2022/03/23 06:52:43;;;;;;;11.70;6.13;;;;;;;3.86;56.39;101194.34;12206542;19;20483;-81
2022/03/23 06:56:44;;;;;;;15.27;7.00;;;;;;;3.99;56.75;101199.28;12208792;19;20010;-81
2022/03/23 07:00:47;;;;;;;11.40;6.93;;;;;;;4.14;56.44;101206.75;12184521;19;20020;-81
2022/03/23 07:04:50;;;;;;;14.63;6.93;;;;;;;4.30;56.12;101206.72;12206336;19;20007;-81
2022/03/23 07:13:14;;;;;;;16.13;7.97;;;;;;;4.66;55.30;101214.44;12202643;19;20044;-82
2022/03/23 07:17:17;;;;;;;14.13;8.23;;;;;;;4.86;54.64;101212.97;12191966;19;20547;-80
2022/03/23 07:21:21;;;;;;;14.60;7.80;;;;;;;5.06;54.42;101218.88;12182010;19;20010;-81
2022/03/23 07:25:37;;;;;;;17.77;8.20;;;;;;;5.28;53.84;101216.34;12206037;19;20668;-81
2022/03/23 07:30:07;;;;;;;14.60;8.73;;;;;;;5.53;53.55;101217.84;12201573;19;20046;-81
2022/03/23 07:34:10;;;;;;;18.73;9.63;;;;;;;5.69;53.36;101220.47;12179152;19;20011;-81
2022/03/23 07:38:13;;;;;;;19.20;10.38;;;;;;;5.81;53.32;101230.97;12210938;19;20015;-80
2022/03/23 07:42:15;;;;;;;18.45;10.60;;;;;;;5.94;52.99;101232.06;12189070;19;20013;-81
2022/03/23 07:46:20;;;;;;;25.88;10.48;;;;;;;6.13;52.78;101232.59;12201992;19;20018;-81
2022/03/23 07:50:25;;;;;;;19.35;10.32;;;;;;;6.43;52.89;101238.13;12203583;19;20022;-81
2022/03/23 07:54:30;;;;;;;19.55;9.57;;;;;;;6.66;52.46;101225.16;12184656;19;20006;-81
2022/03/23 07:58:32;;;;;;;;;;;;;;;6.88;52.14;101237.06;12215968;19;20006;-82
2022/03/23 08:02:35;;;;;;;11.73;6.80;;;;;;;7.12;51.58;101238.63;12213707;19;19941;-81
2022/03/23 08:06:38;;;;;;;19.83;9.63;;;;;;;7.41;50.41;101247.81;12201098;19;20267;-82
2022/03/23 08:10:42;;;;;;;20.02;10.10;;;;;;;7.68;50.07;101244.31;12217821;19;20014;-82
2022/03/23 08:14:45;;;;;;;21.73;10.02;;;;;;;7.89;49.72;101246.19;12207749;19;20007;-83
2022/03/23 08:18:53;;;;;;;17.08;9.30;;;;;;;8.14;49.13;101252.09;12197425;19;20017;-82
2022/03/23 08:23:06;;;;;;;18.52;9.48;;;;;;;8.44;48.78;101250.03;12216084;19;20022;-83
2022/03/23 08:27:10;;;;;;;15.15;9.27;;;;;;;8.75;47.98;101235.03;12188743;19;20479;-83
2022/03/23 08:31:14;;;;;;;16.73;10.05;;;;;;;8.90;47.41;101243.13;12208652;19;20663;-82
2022/03/23 08:35:20;;;;;;;22.00;11.15;;;;;;;9.12;47.32;101249.34;12220199;19;20029;-82
2022/03/23 08:39:22;;;;;;;19.05;10.40;;;;;;;9.27;46.71;101247.28;12201340;19;20010;-83
2022/03/23 08:43:24;;;;;;;18.35;11.15;;;;;;;9.47;46.39;101247.38;12218083;19;20059;-84
2022/03/23 08:47:27;;;;;;;19.02;10.05;;;;;;;9.74;46.06;101241.91;12209377;19;20472;-84
2022/03/23 08:51:31;;;;;;;19.15;11.05;;;;;;;10.07;46.06;101238.34;12187967;19;20006;-83
2022/03/23 08:55:33;;;;;;;20.77;10.67;;;;;;;10.42;45.31;101236.25;12213644;19;20037;-83
2022/03/23 08:59:35;;;;;;;17.50;10.80;;;;;;;10.62;44.16;101238.94;12218224;19;20348;-83
2022/03/23 09:03:37;;;;;;;20.27;10.77;;;;;;;10.77;43.34;101234.06;12183499;19;20022;-83
2022/03/23 09:07:39;;;;;;;19.73;10.95;;;;;;;11.03;43.54;101232.25;12198997;19;20028;-84
2022/03/23 09:11:43;;;;;;;18.40;10.73;;;;;;;11.17;42.19;101239.41;12207997;19;20038;-83
2022/03/23 09:15:47;;;;;;;17.45;10.40;;;;;;;11.47;42.03;101233.31;12183109;19;20526;-81
2022/03/23 09:20:04;;;;;;;17.83;10.45;;;;;;;11.69;40.55;101242.09;12205363;19;20006;-84
2022/03/23 09:24:06;;;;;;;18.02;10.93;;;;;;;11.81;40.74;101238.41;12189305;19;20003;-83
2022/03/23 09:28:11;;;;;;;18.08;12.07;;;;;;;12.04;40.40;101237.00;12203587;19;22699;-84
2022/03/23 09:32:18;;;;;;;17.63;9.93;;;;;;;12.20;40.09;101230.91;12212151;19;20029;-84
2022/03/23 09:40:54;;;;;;;15.80;10.38;;;;;;;12.65;39.09;101241.75;12206798;19;20007;-85
2022/03/23 09:45:11;;;;;;;17.52;9.95;;;;;;;12.82;38.51;101230.06;12050248;19;2804303;-85
2022/03/23 09:49:14;;;;;;;19.13;11.43;;;;;;;12.97;38.44;101227.78;12205745;19;20019;-83
2022/03/23 09:53:16;;;;;;;21.02;10.95;;;;;;;13.33;38.26;101234.41;12179708;19;20015;-82
2022/03/23 09:57:31;;;;;;;18.13;11.35;;;;;;;13.72;38.01;101230.22;12213779;19;20023;-86
2022/03/23 10:01:44;;;;;;;21.17;11.82;;;;;;;13.97;37.35;101221.69;12206910;19;20074;-85
2022/03/23 10:06:24;;;;;;;18.27;10.60;;;;;;;14.08;36.92;101220.88;12193526;19;20006;-85
2022/03/23 10:11:24;;;;;;;19.80;11.95;;;;;;;14.46;36.69;101216.81;12205238;19;20014;-87
2022/03/23 10:16:05;;;;;;;19.42;12.15;;;;;;;14.70;36.13;101216.84;12098923;19;2004425;-86
2022/03/23 10:20:07;;;;;;;23.23;13.02;;;;;;;14.65;35.68;101212.00;12188488;19;20011;-87
2022/03/23 10:24:08;;;;;;;22.42;13.20;;;;;;;14.75;35.78;101208.59;12205948;19;20853;-85
2022/03/23 10:28:14;;;;;;;22.77;12.52;;;;;;;14.89;35.51;101211.97;12203081;19;20015;-83
2022/03/23 10:32:17;;;;;;;24.75;13.35;;;;;;;15.16;34.96;101212.25;12186191;19;20011;-83
2022/03/23 10:36:27;;;;;;;21.08;12.43;;;;;;;15.36;34.61;101207.13;12211348;19;20025;-85
2022/03/23 10:40:31;;;;;;;26.48;12.45;;;;;;;15.48;34.13;101196.81;12203879;19;20007;-85
2022/03/23 10:44:33;;;;;;;20.85;12.80;;;;;;;15.63;33.96;101193.47;12178948;19;20341;-86
2022/03/23 10:48:58;;;;;;;19.98;12.38;;;;;;;15.92;33.46;101187.91;12212471;19;20058;-84
2022/03/23 10:53:06;;;;;;;21.30;13.45;;;;;;;15.99;32.85;101193.28;12179281;19;20015;-84
2022/03/23 10:57:17;;;;;;;21.05;12.40;;;;;;;16.26;33.20;101183.16;12205524;19;20007;-82
2022/03/23 11:01:28;;;;;;;22.08;13.18;;;;;;;16.43;32.17;101179.53;12235240;19;20014;-86
2022/03/23 11:05:44;;;;;;;22.13;12.85;;;;;;;16.60;31.11;101178.41;12202558;19;20018;-85
2022/03/23 11:18:21;;;;;;;22.38;11.93;;;;;;;17.01;31.09;101165.06;12217427;19;20025;-86
2022/03/23 11:22:22;;;;;;;18.88;11.50;;;;;;;17.23;30.20;101165.03;12204332;19;20007;-86
2022/03/23 11:26:31;;;;;;;22.08;11.60;;;;;;;17.34;29.59;101162.34;12179077;19;20471;-86
2022/03/23 11:30:37;;;;;;;21.58;12.15;;;;;;;17.46;28.86;101155.53;12201268;19;20010;-84
2022/03/23 11:34:51;;;;;;;22.50;11.70;;;;;;;17.68;29.12;101154.59;12216737;19;20014;-84
2022/03/23 11:39:36;;;;;;;23.10;12.00;;;;;;;18.02;29.45;101144.03;12187086;19;20023;-86
2022/03/23 11:43:39;;;;;;;20.65;11.60;;;;;;;18.43;29.12;101138.75;12213491;19;20010;-86
2022/03/23 11:48:09;;;;;;;18.88;11.10;;;;;;;18.73;27.56;101129.72;12213802;19;20015;-83
2022/03/23 11:52:54;;;;;;;22.60;11.50;;;;;;;19.11;27.21;101128.47;12220228;19;20519;-85
2022/03/23 12:07:04;;;;;;;16.30;10.15;;;;;;;20.72;23.73;101109.44;12201592;19;20017;-82
2022/03/23 12:11:33;;;;;;;17.05;12.10;;;;;;;20.94;24.14;101104.28;12187513;19;20089;-82
2022/03/23 12:15:54;;;;;;;17.38;10.88;;;;;;;21.32;22.78;101107.41;12203083;19;20360;-83
2022/03/23 12:20:10;;;;;;;13.65;9.50;;;;;;;21.64;21.23;101102.47;12187212;19;20011;-81
2022/03/23 12:24:26;;;;;;;12.45;9.30;;;;;;;21.98;20.84;101089.28;12205081;19;20025;-84
2022/03/23 12:28:43;;;;;;;13.57;10.63;;;;;;;22.29;19.90;101089.81;12200681;19;20388;-84
2022/03/23 12:32:44;;;;;;;12.20;9.90;;;;;;;22.70;20.67;101071.66;12186522;19;20011;-83
2022/03/23 12:36:59;;;;;;;26.43;12.00;;;;;;;22.88;19.58;101073.66;12209934;19;20084;-83
2022/03/23 12:41:03;;;;;;;14.15;9.98;;;;;;;23.18;19.59;101075.22;12186299;19;20275;-85
2022/03/23 12:45:16;;;;;;;13.48;8.73;;;;;;;23.72;18.54;101058.91;12218265;19;20007;-86
2022/03/23 12:58:11;;;;;;;13.30;10.25;;;;;;;24.73;16.82;101054.44;12209698;19;20023;-80
2022/03/23 13:02:19;;;;;;;12.60;9.35;;;;;;;24.61;17.15;101054.97;12184530;19;20010;-80
2022/03/23 13:06:32;;;;;;;13.05;9.80;;;;;;;24.85;16.74;101051.91;12211588;19;20011;-85
2022/03/23 13:10:34;;;;;;;11.15;8.57;;;;;;;25.01;16.41;101044.78;12208234;19;20010;-82
2022/03/23 13:14:37;;;;;;;12.65;9.15;;;;;;;25.17;17.59;101041.66;12188505;19;20006;-83
2022/03/23 13:18:39;;;;;;;;;;;;;;;25.22;17.20;101038.69;12215852;19;20042;-80
2022/03/23 13:22:41;;;;;;;16.40;9.65;;;;;;;23.98;17.86;101036.78;12219314;19;19919;-82
2022/03/23 13:26:46;;;;;;;15.93;10.07;;;;;;;22.90;17.96;101026.41;12186870;19;20014;-81
2022/03/23 13:30:48;;;;;;;14.15;10.00;;;;;;;22.24;18.21;101024.44;12207212;19;20019;-84
2022/03/23 13:34:53;;;;;;;15.48;10.88;;;;;;;21.48;19.28;101018.47;12200967;19;20010;-85
2022/03/23 13:39:15;;;;;;;18.23;9.45;;;;;;;20.99;19.94;101010.94;12209020;19;20031;-86
2022/03/23 13:43:21;;;;;;;16.52;10.88;;;;;;;20.93;19.28;101014.91;12209012;19;20010;-84
2022/03/23 13:47:38;;;;;;;20.08;13.10;;;;;;;21.02;19.68;101004.75;12188917;19;20094;-84
2022/03/23 13:51:45;;;;;;;19.52;12.75;;;;;;;21.03;19.62;101011.19;12202812;19;20602;-82
2022/03/23 13:55:54;;;;;;;18.83;11.43;;;;;;;21.39;19.43;100995.81;12203728;19;20006;-85
2022/03/23 13:59:56;;;;;;;18.38;12.27;;;;;;;22.40;19.58;100997.00;12184959;19;20827;-85
2022/03/23 14:04:02;;;;;;;;;;;;;;;23.06;18.93;100996.13;12207433;19;20018;-82
2022/03/23 14:08:05;;;;;;;23.65;12.50;;;;;;;22.80;18.65;100992.00;12184838;19;19933;-81
2022/03/23 14:12:12;;;;;;;18.33;11.98;;;;;;;22.00;19.20;100987.94;12205340;19;20691;-85
2022/03/23 14:16:19;;;;;;;22.40;13.48;;;;;;;21.64;20.32;100991.09;12202253;19;20042;-85
2022/03/23 14:20:25;;;;;;;17.73;11.95;;;;;;;21.22;20.02;100977.72;12178682;19;20018;-85
2022/03/23 14:24:31;;;;;;;23.58;12.13;;;;;;;20.88;19.78;100990.59;12200508;19;20014;-82
2022/03/23 14:28:45;;;;;;;18.30;11.50;;;;;;;20.51;20.62;100977.03;12201379;19;20031;-83
2022/03/23 14:32:50;;;;;;;17.90;11.68;;;;;;;20.22;20.98;100968.50;12191053;19;20015;-85
2022/03/23 14:37:09;;;;;;;21.58;12.82;;;;;;;20.19;21.31;100963.47;12201573;19;20018;-82
2022/03/23 14:41:19;;;;;;;23.17;12.45;;;;;;;20.19;21.06;100969.06;12170814;19;20033;-84
2022/03/23 14:45:41;;;;;;;24.42;12.52;;;;;;;20.65;20.78;100966.09;12198322;19;20515;-83
2022/03/23 14:49:45;;;;;;;22.13;13.68;;;;;;;21.30;19.93;100954.69;12212619;19;20003;-85
2022/03/23 14:53:47;;;;;;;20.27;12.18;;;;;;;22.11;19.18;100953.00;12178415;19;20083;-82
2022/03/23 14:57:50;;;;;;;16.13;11.52;;;;;;;22.58;19.07;100944.84;12192722;19;20014;-86
2022/03/23 15:01:57;;;;;;;22.98;12.82;;;;;;;22.71;19.27;100939.28;12181915;19;20014;-85
2022/03/23 15:14:41;;;;;;;21.17;12.32;;;;;;;21.47;20.23;100929.84;12175275;19;20020;-81
2022/03/23 15:18:43;;;;;;;19.17;12.45;;;;;;;21.07;19.58;100917.03;12205570;19;20010;-85
2022/03/23 15:22:46;;;;;;;18.10;11.80;;;;;;;20.92;20.52;100915.19;12211691;19;20021;-85
2022/03/23 15:26:50;;;;;;;16.23;11.20;;;;;;;20.81;20.56;100917.22;12176992;19;20018;-84
2022/03/23 15:30:53;;;;;;;20.15;12.57;;;;;;;20.89;20.52;100915.78;12196335;19;20010;-85
2022/03/23 15:34:55;;;;;;;19.77;11.27;;;;;;;21.09;19.90;100910.00;12181060;19;20033;-85
2022/03/23 15:38:57;;;;;;;17.17;11.40;;;;;;;20.96;20.02;100907.03;12196338;19;20011;-85
2022/03/23 15:43:05;;;;;;;16.92;11.15;;;;;;;20.62;20.35;100913.44;12198357;19;20014;-85
2022/03/23 15:47:08;;;;;;;19.98;11.18;;;;;;;20.44;20.23;100904.56;12180041;19;20022;-83
2022/03/23 15:51:13;;;;;;;21.67;11.35;;;;;;;20.49;19.94;100901.75;12192639;19;20006;-84
2022/03/23 15:55:16;;;;;;;17.50;11.45;;;;;;;20.28;20.55;100897.38;12198561;19;20014;-85
2022/03/23 15:59:18;;;;;;;17.45;10.73;;;;;;;20.13;20.74;100891.84;12174665;19;20080;-83
2022/03/23 16:03:21;;;;;;;21.80;10.63;;;;;;;20.11;20.56;100882.91;12195365;19;20018;-84
2022/03/23 16:07:24;;;;;;;17.38;11.65;;;;;;;20.56;20.75;100895.00;12206609;19;20027;-82
2022/03/23 16:11:26;;;;;;;19.50;11.45;;;;;;;20.43;21.15;100885.25;12185744;19;20007;-83
2022/03/23 16:15:29;;;;;;;17.63;11.15;;;;;;;20.21;21.04;100889.28;12221981;19;20485;-84
2022/03/23 16:19:31;;;;;;;19.77;12.25;;;;;;;19.96;20.44;100892.22;12210505;19;20070;-83
2022/03/23 16:23:34;;;;;;;17.92;10.40;;;;;;;19.95;20.86;100894.16;12193375;19;20027;-83
2022/03/23 16:27:37;;;;;;;17.67;10.77;;;;;;;19.83;21.50;100893.66;12205649;19;20011;-83
2022/03/23 16:31:39;;;;;;;;;;;;;;;19.61;20.85;100901.56;12212199;19;20448;-84
2022/03/23 16:35:40;;;;;;;17.45;10.80;;;;;;;19.47;21.16;100892.91;12187334;19;20275;-83
2022/03/23 16:39:48;;;;;;;18.88;9.85;;;;;;;19.42;21.44;100898.50;12208625;19;20029;-84
2022/03/23 16:43:50;;;;;;;16.30;10.35;;;;;;;19.32;20.98;100905.78;12216707;19;20014;-83
2022/03/23 16:47:55;;;;;;;17.27;10.48;;;;;;;19.31;20.68;100903.28;12214358;19;20014;-86
2022/03/23 16:51:57;;;;;;;17.15;10.05;;;;;;;19.47;21.05;100899.34;12212581;19;20075;-85
2022/03/23 16:56:03;;;;;;;15.57;11.25;;;;;;;19.62;20.63;100904.03;12186251;19;20007;-84
2022/03/23 17:00:07;;;;;;;17.27;11.23;;;;;;;19.50;21.17;100907.16;12210686;19;20010;-84
2022/03/23 17:12:55;;;;;;;15.45;10.27;;;;;;;18.53;22.55;100904.38;12211641;19;20031;-85
2022/03/23 17:16:57;;;;;;;;;;;;;;;18.27;22.97;100913.78;12195561;19;20028;-84
2022/03/23 17:20:59;;;;;;;15.13;9.50;;;;;;;17.91;23.29;100908.06;12217490;19;19915;-84
2022/03/23 17:25:02;;;;;;;19.02;10.25;;;;;;;17.50;24.10;100907.81;12209624;19;20010;-84
2022/03/23 17:29:04;;;;;;;21.30;9.40;;;;;;;17.07;24.52;100915.28;12185981;19;20412;-84
2022/03/23 17:33:06;;;;;;;19.75;9.95;;;;;;;16.64;25.38;100914.34;12213463;19;20003;-83
2022/03/23 17:37:08;;;;;;;14.85;9.60;;;;;;;16.18;26.10;100923.03;12204382;19;20042;-84
2022/03/23 17:41:10;;;;;;;15.65;9.82;;;;;;;15.68;26.54;100915.72;12192858;19;20050;-84
2022/03/23 17:45:11;;;;;;;18.08;10.23;;;;;;;15.25;27.16;100922.84;12210619;19;20007;-85
2022/03/23 17:49:15;;;;;;;16.67;9.52;;;;;;;14.87;27.71;100919.97;12211680;19;20030;-84
2022/03/23 17:53:20;;;;;;;15.30;10.50;;;;;;;14.52;28.17;100916.34;12183995;19;20028;-84
2022/03/23 17:57:23;;;;;;;22.48;9.77;;;;;;;14.23;28.54;100922.94;12216019;19;20483;-84
2022/03/23 18:01:28;;;;;;;16.55;10.60;;;;;;;13.94;28.92;100924.84;12207299;19;20010;-85
2022/03/23 18:05:34;;;;;;;18.45;10.07;;;;;;;13.67;29.18;100930.91;12188662;19;20025;-85
2022/03/23 18:09:39;;;;;;;14.57;9.20;;;;;;;13.41;29.75;100935.03;12202298;19;20074;-82
2022/03/23 18:13:41;;;;;;;21.80;11.00;;;;;;;13.16;30.11;100927.78;12205532;19;20021;-84
2022/03/23 18:17:45;;;;;;;15.43;9.50;;;;;;;12.96;30.25;100933.66;12194793;19;20035;-85
2022/03/23 18:21:47;;;;;;;16.42;9.45;;;;;;;12.77;30.70;100938.44;12213468;19;20074;-85
2022/03/23 18:25:49;;;;;;;20.38;10.13;;;;;;;12.60;30.88;100944.88;12202797;19;20031;-83
2022/03/23 18:29:51;;;;;;;17.20;10.02;;;;;;;12.47;31.18;100945.91;12190430;19;20021;-84
2022/03/23 18:33:54;;;;;;;18.40;10.32;;;;;;;12.35;31.26;100954.16;12211431;19;20007;-84
2022/03/23 18:37:55;;;;;;;22.00;11.27;;;;;;;12.25;31.73;100948.34;12180189;19;20010;-85
2022/03/23 18:41:58;;;;;;;21.27;12.33;;;;;;;12.14;31.66;100963.81;12211149;19;20011;-84
2022/03/23 18:45:59;;;;;;;24.88;11.68;;;;;;;12.06;32.06;100951.13;12200969;19;20006;-83
2022/03/23 18:50:01;;;;;;;21.70;11.52;;;;;;;11.99;32.34;100952.31;12190024;19;20027;-85
2022/03/23 18:54:03;;;;;;;26.77;10.00;;;;;;;11.93;32.47;100954.06;12213917;19;20020;-84
2022/03/23 18:58:05;;;;;;;20.95;10.93;;;;;;;11.88;32.61;100956.66;12214699;19;20456;-82
2022/03/23 19:02:06;;;;;;;21.88;10.98;;;;;;;11.83;32.68;100956.47;12183612;19;20065;-84
2022/03/23 19:06:09;;;;;;;20.15;10.63;;;;;;;11.82;32.87;100961.16;12208437;19;20006;-81
2022/03/23 19:10:11;;;;;;;20.42;10.38;;;;;;;11.78;32.86;100957.19;12208778;19;20370;-85
2022/03/23 19:14:13;;;;;;;19.77;10.15;;;;;;;11.75;33.00;100965.94;12191640;19;20076;-85
2022/03/23 19:18:15;;;;;;;19.17;11.90;;;;;;;11.71;32.94;100958.31;12226752;19;20054;-86
2022/03/23 19:22:19;;;;;;;20.90;10.80;;;;;;;11.71;33.14;100961.09;12226104;19;20013;-85
2022/03/23 19:26:22;;;;;;;18.90;11.38;;;;;;;11.73;33.26;100959.78;12189124;19;20030;-83
2022/03/23 19:30:25;;;;;;;23.65;11.38;;;;;;;11.74;33.24;100953.19;12203299;19;20018;-83
2022/03/23 19:34:27;;;;;;;18.85;10.82;;;;;;;11.73;33.34;100950.66;12214479;19;20413;-83
2022/03/23 19:38:29;;;;;;;18.23;10.73;;;;;;;11.69;33.43;100955.81;12188918;19;20086;-82
2022/03/23 19:42:36;;;;;;;22.90;10.52;;;;;;;11.63;33.58;100959.47;12204186;19;20010;-85